M I D A S
Marine Information and Data Acquisition System
Tripno 1957 of the Zeeleeuw from 2010-09-15 06:25:38 to 2010-09-15 10:44:20
Back to CruiseResearch ActivitiesStationsMapUnderway DataData graphs

EquipmentUnitsComment
TimeDGPSUTC
LatitudeDGPSDM.mWGS84
LongitudeDGPSDM.mWGS84
HeadingGyrodeg 
SOGDGPSknotsSpeed over ground
COGDGPSdegCourse over ground
DepthEcho soundermeters200 kHz
Missing or incorrect values are displayed as -999
Navigation data collected by the RV Zeeleeuw from 2010-09-15 06:11:35 to 2010-09-15 10:53:31
Time Latitude Longitude Heading SOG COG Depth
2010-09-15 06:12:39 51°13.665 2°55.959 126.3 0.1 305 8.3
2010-09-15 06:13:37 51°13.664 2°55.96 126.4 -999 136 8.3
2010-09-15 06:14:37 51°13.663 2°55.959 126.1 -999 196 8.2
2010-09-15 06:15:38 51°13.663 2°55.96 126.5 0.2 33 8.3
2010-09-15 06:16:37 51°13.662 2°55.96 126.8 0.1 34 8.3
2010-09-15 06:17:38 51°13.663 2°55.963 126.5 -999 314 8.3
2010-09-15 06:18:37 51°13.663 2°55.962 126.9 0.1 190 8.3
2010-09-15 06:19:37 51°13.662 2°55.96 126.7 0.2 261 8.2
2010-09-15 06:20:37 51°13.662 2°55.961 126.6 -999 186 8.2
2010-09-15 06:21:37 51°13.663 2°55.961 126.7 -999 6 8.2
2010-09-15 06:22:37 51°13.662 2°55.96 127 0.2 294 8.2
2010-09-15 06:23:38 51°13.663 2°55.961 128.6 0.2 31 8.2
2010-09-15 06:24:37 51°13.661 2°55.96 117.7 -999 216 8.2
2010-09-15 06:25:37 51°13.663 2°55.95 108.8 1.9 294 8.4
2010-09-15 06:26:41 51°13.685 2°55.849 103.8 4.4 285 -999
2010-09-15 06:27:40 51°13.694 2°55.755 86.5 2.9 270 15.4
2010-09-15 06:28:39 51°13.7 2°55.754 41.5 0.1 134 15.6
2010-09-15 06:29:41 51°13.69 2°55.744 7.7 1.9 7 -999
2010-09-15 06:30:30 51°13.745 2°55.704 332.6 0.5 331 14.1
2010-09-15 06:31:38 51°13.896 2°55.586 336.1 9.8 335 13.3
2010-09-15 06:32:37 51°14.052 2°55.476 336.8 10.9 336 12.6
2010-09-15 06:33:37 51°14.22 2°55.336 329.8 11.8 328 12.5
2010-09-15 06:34:37 51°14.392 2°55.179 332.5 11.9 329 12.1
2010-09-15 06:35:37 51°14.556 2°54.994 323.8 12.7 324 13.2
2010-09-15 06:36:37 51°14.74 2°54.82 327 12.8 330 13.6
2010-09-15 06:37:37 51°14.925 2°54.65 326.7 12.8 330 12.3
2010-09-15 06:38:37 51°15.103 2°54.46 322.3 12.9 325 11
2010-09-15 06:39:37 51°15.278 2°54.263 321.6 12.9 324 11.6
2010-09-15 06:40:37 51°15.443 2°54.049 314.8 12.9 317 12.6
2010-09-15 06:41:37 51°15.604 2°53.823 316.9 13.1 320 13
2010-09-15 06:42:37 51°15.77 2°53.604 318.5 13 321 13.5
2010-09-15 06:43:37 51°15.942 2°53.398 324 13.1 325 13.4
2010-09-15 06:44:37 51°16.121 2°53.217 324.5 11.9 330 13.9
2010-09-15 06:45:37 51°16.3 2°53.039 326.8 13.1 328 13.7
2010-09-15 06:46:37 51°16.493 2°52.879 330.3 13 332 13.4
2010-09-15 06:47:37 51°16.693 2°52.738 334.7 13.1 338 12.5
2010-09-15 06:48:37 51°16.895 2°52.603 334 13.2 335 11.4
2010-09-15 06:49:37 51°17.097 2°52.464 335 13.4 337 11.9
2010-09-15 06:50:37 51°17.314 2°52.379 349.9 13.8 349 11.7
2010-09-15 06:51:37 51°17.536 2°52.332 352 13.4 351 12.5
2010-09-15 06:52:37 51°17.76 2°52.287 354.8 13.5 358 12.7
2010-09-15 06:53:36 51°17.982 2°52.305 9.5 13.8 10 12.2
2010-09-15 06:54:37 51°18.211 2°52.365 9.8 13.6 9 12.5
2010-09-15 06:55:37 51°18.44 2°52.43 9.4 13.9 11 12.8
2010-09-15 06:56:36 51°18.662 2°52.499 9.6 13.8 11 13.5
2010-09-15 06:57:37 51°18.891 2°52.571 9.5 14 8 13.6
2010-09-15 06:58:37 51°19.119 2°52.638 10.9 13.9 7 15
2010-09-15 06:59:37 51°19.346 2°52.69 8.5 14.1 8 15.6
2010-09-15 07:00:37 51°19.572 2°52.757 7.1 13.7 9 16.6
2010-09-15 07:01:37 51°19.8 2°52.819 9.8 14.1 10 17.4
2010-09-15 07:02:37 51°20.026 2°52.906 10.9 13.6 16 17.6
2010-09-15 07:03:37 51°20.248 2°52.995 14.4 13.6 18 17.9
2010-09-15 07:04:37 51°20.47 2°53.093 13.9 13.8 15 17.7
2010-09-15 07:05:36 51°20.687 2°53.192 14.1 13.6 11 17.8
2010-09-15 07:06:36 51°20.907 2°53.282 15 13.6 14 18.3
2010-09-15 07:07:37 51°21.128 2°53.388 16.1 13.7 15 17.4
2010-09-15 07:08:37 51°21.347 2°53.486 14.6 13.7 15 17.8
2010-09-15 07:09:37 51°21.567 2°53.572 11.5 13.5 12 18.2
2010-09-15 07:10:36 51°21.785 2°53.659 14.4 13.9 11 19.2
2010-09-15 07:11:37 51°22.011 2°53.75 14 13.7 17 20.6
2010-09-15 07:12:37 51°22.234 2°53.846 13.9 14 16 21.3
2010-09-15 07:13:36 51°22.451 2°53.936 10.8 13.8 12 23.3
2010-09-15 07:14:36 51°22.671 2°54.033 15.7 13.6 16 23.5
2010-09-15 07:15:36 51°22.893 2°54.126 12.7 14 12 22.3
2010-09-15 07:16:37 51°23.12 2°54.225 16.9 13.8 10 22.4
2010-09-15 07:17:37 51°23.346 2°54.272 2.6 13.7 4 20.1
2010-09-15 07:18:37 51°23.573 2°54.304 5.1 13.4 6 21.5
2010-09-15 07:19:37 51°23.798 2°54.339 3.1 13.5 3 22.3
2010-09-15 07:20:37 51°24.023 2°54.367 4.4 13.7 4 22.4
2010-09-15 07:21:36 51°24.243 2°54.396 5.4 13.6 7 23.3
2010-09-15 07:22:36 51°24.469 2°54.428 3.6 13.5 2 22.2
2010-09-15 07:23:37 51°24.7 2°54.459 4.4 13.5 5 18.6
2010-09-15 07:24:37 51°24.927 2°54.49 3 13.4 1 19.3
2010-09-15 07:25:36 51°25.144 2°54.52 5 13.5 5 21.4
2010-09-15 07:26:37 51°25.37 2°54.552 5.4 13.5 7 20.6
2010-09-15 07:27:36 51°25.59 2°54.577 3.4 13.4 3 21
2010-09-15 07:28:36 51°25.81 2°54.611 5.9 13.6 9 23.8
2010-09-15 07:29:36 51°26.036 2°54.642 5 13.6 7 24.4
2010-09-15 07:30:37 51°26.267 2°54.677 3.7 13.8 3 26.7
2010-09-15 07:31:36 51°26.487 2°54.714 4.7 13.6 8 26.2
2010-09-15 07:32:36 51°26.713 2°54.748 1.9 13.7 6 27.1
2010-09-15 07:33:36 51°26.943 2°54.778 3.5 13.9 2 28.7
2010-09-15 07:34:37 51°27.178 2°54.813 6.1 13.9 7 30.2
2010-09-15 07:35:37 51°27.409 2°54.85 2.5 14 -999 29.6
2010-09-15 07:36:36 51°27.635 2°54.885 5 14 6 29.6
2010-09-15 07:37:36 51°27.862 2°54.929 4.5 13.8 5 29
2010-09-15 07:38:37 51°28.094 2°54.963 5.5 13.8 5 25.1
2010-09-15 07:39:36 51°28.316 2°54.991 2.3 13.8 4 22.7
2010-09-15 07:40:37 51°28.549 2°55.015 4.4 13.6 8 23.1
2010-09-15 07:41:37 51°28.776 2°55.034 0.8 13.5 3 24
2010-09-15 07:42:37 51°29.002 2°55.072 5.9 13.7 9 26.8
2010-09-15 07:43:37 51°29.224 2°55.103 2 13.3 1 26.6
2010-09-15 07:44:37 51°29.445 2°55.135 5.8 13.8 5 26.4
2010-09-15 07:45:37 51°29.67 2°55.157 0.6 13.3 1 29.1
2010-09-15 07:46:37 51°29.898 2°55.191 7.2 13.7 7 30
2010-09-15 07:47:36 51°30.121 2°55.224 3.9 13.5 4 33.1
2010-09-15 07:48:36 51°30.346 2°55.26 4.4 13.8 10 37
2010-09-15 07:49:36 51°30.573 2°55.292 4.9 13.7 6 38.4
2010-09-15 07:50:36 51°30.801 2°55.332 4 13.6 6 33.8
2010-09-15 07:51:36 51°31.029 2°55.355 356.5 13.4 356 19.2
2010-09-15 07:52:36 51°31.258 2°55.332 354.1 13.6 355 18.9
2010-09-15 07:53:37 51°31.488 2°55.316 355.9 13.8 359 20.2
2010-09-15 07:54:37 51°31.714 2°55.294 354.2 13.5 354 19.3
2010-09-15 07:55:36 51°31.934 2°55.273 353.7 13.4 353 21.7
2010-09-15 07:56:37 51°32.157 2°55.24 352.8 13 355 22.2
2010-09-15 07:57:37 51°32.378 2°55.19 350.7 13.3 352 21.3
2010-09-15 07:58:37 51°32.599 2°55.143 351.4 13.6 352 24.9
2010-09-15 07:59:36 51°32.818 2°55.096 351.9 12.3 353 25.2
2010-09-15 08:00:36 51°32.879 2°54.974 250.4 3.8 249 26.5
2010-09-15 08:01:36 51°32.829 2°54.977 144.7 4.3 125 24.5
2010-09-15 08:02:37 51°32.805 2°55.088 122.3 4.1 107 26
2010-09-15 08:03:36 51°32.786 2°55.163 134.4 2.6 114 24.9
2010-09-15 08:04:36 51°32.775 2°55.219 146.3 2 104 24.4
2010-09-15 08:05:36 51°32.768 2°55.261 154.4 1.1 96 25.5
2010-09-15 08:06:37 51°32.766 2°55.294 166.5 1 90 24.7
2010-09-15 08:07:36 51°32.768 2°55.323 173 0.9 87 24.2
2010-09-15 08:08:36 51°32.769 2°55.352 181.9 1.1 94 21.1
2010-09-15 08:09:37 51°32.77 2°55.376 192.8 1.1 78 23.3
2010-09-15 08:10:36 51°32.775 2°55.402 193.8 1.4 73 25.6
2010-09-15 08:11:36 51°32.782 2°55.431 179.4 1 73 27.3
2010-09-15 08:12:36 51°32.773 2°55.46 171.7 2.2 151 28
2010-09-15 08:13:37 51°32.734 2°55.484 187.5 2.5 171 27.9
2010-09-15 08:14:36 51°32.702 2°55.441 250.1 4.2 262 21.9
2010-09-15 08:15:36 51°32.766 2°55.296 323.7 10.4 329 25
2010-09-15 08:16:36 51°32.934 2°55.112 325.6 13.2 330 24.6
2010-09-15 08:17:37 51°33.15 2°55.097 17.5 13.2 24 26.1
2010-09-15 08:18:37 51°33.248 2°55.386 95.6 12.9 95 26.4
2010-09-15 08:19:37 51°33.21 2°55.627 125.9 6.9 117 26.8
2010-09-15 08:20:36 51°33.165 2°55.728 143.4 3.1 127 26.2
2010-09-15 08:21:36 51°33.153 2°55.768 173.6 1 99 26.1
2010-09-15 08:22:36 51°33.156 2°55.791 191.4 1 49 24.8
2010-09-15 08:23:37 51°33.166 2°55.82 188.1 1.3 58 26.7
2010-09-15 08:24:36 51°33.179 2°55.848 171.4 1.3 54 27.4
2010-09-15 08:25:36 51°33.19 2°55.875 158.6 1 67 23.2
2010-09-15 08:26:36 51°33.199 2°55.905 158.8 1.5 66 24.6
2010-09-15 08:27:37 51°33.206 2°55.933 166.1 1 69 25.1
2010-09-15 08:28:36 51°33.208 2°55.959 177.6 1.2 88 25.8
2010-09-15 08:29:36 51°33.208 2°55.985 184.9 1 78 25.3
2010-09-15 08:30:36 51°33.213 2°56.009 183.7 0.7 49 26.4
2010-09-15 08:31:37 51°33.217 2°56.032 186.4 0.7 53 26.7
2010-09-15 08:32:36 51°33.221 2°56.056 183.8 0.8 67 27.1
2010-09-15 08:33:36 51°33.228 2°56.082 180.8 1.4 63 27.8
2010-09-15 08:34:37 51°33.236 2°56.108 176.8 1.1 60 27.5
2010-09-15 08:35:36 51°33.242 2°56.132 177 1 68 27.8
2010-09-15 08:36:36 51°33.248 2°56.157 180.4 0.7 53 26.9
2010-09-15 08:37:36 51°33.255 2°56.183 179.7 1.3 73 27.2
2010-09-15 08:38:37 51°33.262 2°56.21 180.5 1.2 64 26.3
2010-09-15 08:39:36 51°33.255 2°56.23 184 1.9 167 26.4
2010-09-15 08:40:36 51°33.206 2°56.213 201 3.9 199 26.9
2010-09-15 08:41:36 51°33.134 2°56.19 193.6 4.1 190 25.5
2010-09-15 08:42:37 51°33.088 2°56.182 192.6 1.8 179 24.9
2010-09-15 08:43:36 51°33.069 2°56.19 196.9 0.7 145 25.6
2010-09-15 08:44:36 51°33.065 2°56.208 191 0.7 73 25.9
2010-09-15 08:45:36 51°33.066 2°56.229 183.7 0.9 84 25
2010-09-15 08:46:37 51°33.067 2°56.25 185.4 0.8 79 24.9
2010-09-15 08:47:36 51°33.062 2°56.269 187 0.6 134 24.3
2010-09-15 08:48:36 51°33.059 2°56.292 183.3 1.2 91 23.7
2010-09-15 08:49:36 51°33.063 2°56.315 183.6 1.4 75 24.8
2010-09-15 08:50:37 51°33.072 2°56.341 178.4 1.2 60 24.6
2010-09-15 08:51:36 51°33.084 2°56.369 166.5 1.1 53 25
2010-09-15 08:52:36 51°33.095 2°56.396 161.7 1.3 75 24.6
2010-09-15 08:53:36 51°33.103 2°56.421 162.3 1.1 69 25.9
2010-09-15 08:54:37 51°33.103 2°56.453 152.5 1.9 121 26.8
2010-09-15 08:55:37 51°33.089 2°56.52 106.6 3.3 92 26.1
2010-09-15 08:56:37 51°33.119 2°56.607 36.2 4 36 25.7
2010-09-15 08:57:36 51°33.176 2°56.624 338.2 3.2 345 25.5
2010-09-15 08:58:36 51°33.22 2°56.577 292.4 2.9 313 25.1
2010-09-15 08:59:36 51°33.243 2°56.554 294.3 1.2 354 25.9
2010-09-15 09:00:37 51°33.26 2°56.567 313.9 1.1 50 27.1
2010-09-15 09:01:37 51°33.27 2°56.594 344.7 1.4 76 26.7
2010-09-15 09:02:36 51°33.274 2°56.618 10 0.7 50 26.1
2010-09-15 09:03:36 51°33.278 2°56.642 19.1 0.8 64 26.1
2010-09-15 09:04:36 51°33.279 2°56.663 29.8 0.6 66 26.7
2010-09-15 09:05:36 51°33.287 2°56.685 28.1 1.9 49 25.9
2010-09-15 09:06:37 51°33.328 2°56.76 70.7 4.8 68 24.6
2010-09-15 09:07:37 51°33.288 2°56.876 145.6 6.9 145 24.6
2010-09-15 09:08:36 51°33.155 2°57.042 137.3 12.4 142 20.2
2010-09-15 09:09:36 51°32.983 2°57.23 150.3 12.6 143 20.6
2010-09-15 09:10:37 51°32.799 2°57.382 155.4 11.9 150 20.3
2010-09-15 09:11:36 51°32.616 2°57.515 158.9 11.8 167 18.7
2010-09-15 09:12:36 51°32.422 2°57.593 172.8 11.8 173 17.4
2010-09-15 09:13:37 51°32.22 2°57.59 179.2 12.1 180 15.6
2010-09-15 09:14:37 51°32.023 2°57.572 182.8 11.7 182 16.2
2010-09-15 09:15:36 51°31.827 2°57.567 182.5 12.3 185 27.6
2010-09-15 09:16:37 51°31.628 2°57.534 183.1 12.6 184 32.4
2010-09-15 09:17:37 51°31.43 2°57.497 182.5 12 185 33.3
2010-09-15 09:18:37 51°31.227 2°57.455 184.9 12.3 187 31.8
2010-09-15 09:19:37 51°31.023 2°57.42 186 12.3 183 30.6
2010-09-15 09:20:37 51°30.821 2°57.378 192.6 12.4 197 30.2
2010-09-15 09:21:37 51°30.624 2°57.295 193.9 12.6 195 30.3
2010-09-15 09:22:37 51°30.426 2°57.199 191.7 12.8 191 29.9
2010-09-15 09:23:37 51°30.229 2°57.109 193.9 12.5 196 28
2010-09-15 09:24:36 51°30.035 2°57.02 194.2 12.3 197 27.6
2010-09-15 09:25:37 51°29.836 2°56.922 197 12.1 199 27.5
2010-09-15 09:26:36 51°29.64 2°56.84 193.7 12.4 194 26.8
2010-09-15 09:27:36 51°29.442 2°56.758 190.2 12.3 189 25.5
2010-09-15 09:28:37 51°29.239 2°56.667 194.5 12.5 194 23.6
2010-09-15 09:29:36 51°29.045 2°56.576 197.1 12.2 195 23.3
2010-09-15 09:30:37 51°28.842 2°56.483 194.4 12.3 196 22.9
2010-09-15 09:31:37 51°28.644 2°56.399 193.1 12.3 190 26.1
2010-09-15 09:32:36 51°28.448 2°56.318 196.4 12.2 200 26.2
2010-09-15 09:33:37 51°28.248 2°56.24 195.6 12.2 198 27
2010-09-15 09:34:37 51°28.049 2°56.145 196 12.1 192 27.6
2010-09-15 09:35:36 51°27.85 2°56.063 194.8 12.9 197 26.4
2010-09-15 09:36:37 51°27.65 2°55.978 192.7 12.4 194 29
2010-09-15 09:37:36 51°27.457 2°55.887 193.6 12.6 198 29.3
2010-09-15 09:38:37 51°27.252 2°55.803 193.3 12.7 197 26
2010-09-15 09:39:36 51°27.051 2°55.715 191.7 13 192 30.2
2010-09-15 09:40:37 51°26.843 2°55.627 194.1 13 198 26.2
2010-09-15 09:41:37 51°26.636 2°55.54 194.7 12.9 197 24.7
2010-09-15 09:42:36 51°26.43 2°55.454 195.3 12.8 195 23.8
2010-09-15 09:43:37 51°26.22 2°55.366 190.4 12.8 191 22.9
2010-09-15 09:44:36 51°26.017 2°55.28 194.2 13.1 195 21.6
2010-09-15 09:45:37 51°25.809 2°55.199 191.6 13.2 195 19.2
2010-09-15 09:46:37 51°25.605 2°55.123 193.3 12 189 19.4
2010-09-15 09:47:36 51°25.409 2°55.029 195.6 12.5 198 18.5
2010-09-15 09:48:36 51°25.204 2°54.964 185.6 12.7 187 18.9
2010-09-15 09:49:37 51°24.994 2°54.914 185.1 12.8 187 19.3
2010-09-15 09:50:36 51°24.791 2°54.852 189.3 13.1 192 18.5
2010-09-15 09:51:36 51°24.583 2°54.787 190.6 12.6 189 21
2010-09-15 09:52:37 51°24.369 2°54.73 189.6 13.2 191 21.6
2010-09-15 09:53:36 51°24.164 2°54.667 188.8 13.2 192 21.1
2010-09-15 09:54:37 51°23.953 2°54.603 188.4 12.4 190 20
2010-09-15 09:55:36 51°23.749 2°54.533 189.2 12.8 196 19.2
2010-09-15 09:56:36 51°23.541 2°54.479 188.1 12.8 193 18.1
2010-09-15 09:57:36 51°23.33 2°54.416 189.5 12.8 191 19
2010-09-15 09:58:37 51°23.116 2°54.35 190.3 13.2 193 19.6
2010-09-15 09:59:37 51°22.905 2°54.285 188.7 13.2 193 21
2010-09-15 10:00:37 51°22.701 2°54.189 199.1 13 204 22.3
2010-09-15 10:01:36 51°22.506 2°54.075 197.5 12.8 194 20.7
2010-09-15 10:02:36 51°22.304 2°53.958 197.9 12.7 199 18.9
2010-09-15 10:03:36 51°22.103 2°53.855 194.7 12.9 196 18.6
2010-09-15 10:04:36 51°21.898 2°53.754 193.8 13 196 18.5
2010-09-15 10:05:37 51°21.688 2°53.668 193.3 12.9 196 15.8
2010-09-15 10:06:36 51°21.488 2°53.577 195.3 12.6 199 15.1
2010-09-15 10:07:37 51°21.282 2°53.478 192.6 12.7 193 15.8
2010-09-15 10:08:36 51°21.084 2°53.379 195.6 12.6 198 15.8
2010-09-15 10:09:36 51°20.882 2°53.285 193.2 12.5 195 16
2010-09-15 10:10:36 51°20.676 2°53.189 190.2 13.4 196 16.7
2010-09-15 10:11:37 51°20.468 2°53.096 193.8 13.1 198 16.4
2010-09-15 10:12:36 51°20.267 2°52.996 195.3 12.6 197 16.2
2010-09-15 10:13:37 51°20.055 2°52.914 189.1 12.6 193 14.8
2010-09-15 10:14:37 51°19.845 2°52.85 189 12.8 190 14.6
2010-09-15 10:15:36 51°19.638 2°52.789 186.4 13.4 191 14.8
2010-09-15 10:16:37 51°19.424 2°52.723 190.2 12.6 194 13.7
2010-09-15 10:17:36 51°19.217 2°52.71 181.4 12 173 13.1
2010-09-15 10:18:36 51°19.006 2°52.701 180.8 12.9 187 11.8
2010-09-15 10:19:36 51°18.796 2°52.684 182 13.1 188 11.4
2010-09-15 10:20:37 51°18.586 2°52.621 191.7 13 195 11.1
2010-09-15 10:21:37 51°18.38 2°52.544 189.5 12.6 192 10.1
2010-09-15 10:22:37 51°18.169 2°52.485 187.6 12.4 189 10.5
2010-09-15 10:23:36 51°17.964 2°52.44 188.1 12.8 191 9.5
2010-09-15 10:24:37 51°17.75 2°52.406 184.5 12.2 184 9.3
2010-09-15 10:25:36 51°17.541 2°52.402 175.2 12.9 180 9.7
2010-09-15 10:26:36 51°17.33 2°52.447 168.8 13 173 9.2
2010-09-15 10:27:36 51°17.154 2°52.614 132.8 12.5 138 8.9
2010-09-15 10:28:36 51°17.001 2°52.843 141.5 12.2 144 8.5
2010-09-15 10:29:37 51°16.814 2°53.019 151 12.4 154 9.1
2010-09-15 10:30:36 51°16.606 2°53.106 168 13.1 173 10.6
2010-09-15 10:31:37 51°16.391 2°53.186 158.2 13.3 160 11.1
2010-09-15 10:32:37 51°16.184 2°53.279 162.2 12.8 167 10.7
2010-09-15 10:33:36 51°15.98 2°53.365 154.9 12.8 158 10.8
2010-09-15 10:34:36 51°15.791 2°53.516 139.4 13.1 145 10.7
2010-09-15 10:35:36 51°15.616 2°53.709 145.8 12.7 154 10.4
2010-09-15 10:36:36 51°15.45 2°53.921 136 12.2 138 9.9
2010-09-15 10:37:36 51°15.282 2°54.137 138.5 13 137 9.6
2010-09-15 10:38:37 51°15.108 2°54.347 142.1 13.4 145 9.4
2010-09-15 10:39:36 51°14.934 2°54.546 141.8 13.2 146 9.1
2010-09-15 10:40:36 51°14.755 2°54.749 138.9 13.6 144 10.4
2010-09-15 10:41:37 51°14.574 2°54.949 140.3 12.5 143 10.8
2010-09-15 10:42:36 51°14.402 2°55.143 142.4 12.7 146 9.1
2010-09-15 10:43:37 51°14.245 2°55.312 146.2 9.6 148 -999
2010-09-15 10:44:40 51°14.106 2°55.427 153.3 8.9 155 9.6
2010-09-15 10:45:38 51°13.978 2°55.521 153.8 7.8 156 9.9
2010-09-15 10:46:36 51°13.878 2°55.596 153.5 6.6 155 9.5
2010-09-15 10:47:36 51°13.785 2°55.685 138.9 6.1 138 9.7
2010-09-15 10:48:36 51°13.719 2°55.795 128.6 5.6 128 11.7
2010-09-15 10:49:37 51°13.672 2°55.91 111.4 4.4 112 7.9
2010-09-15 10:50:37 51°13.662 2°55.96 121.3 0.3 2 5.1
2010-09-15 10:51:39 51°13.662 2°55.959 130 0.1 65 -999
2010-09-15 10:52:37 51°13.662 2°55.959 127.3 -999 49 5.1